createdAt,value
2022-10-13T00:00:06.874Z,5.75
2022-10-13T00:05:13.923Z,5.89
2022-10-13T00:10:15.755Z,6.05
2022-10-13T00:15:17.956Z,5.95
2022-10-13T00:20:19.857Z,5.74
2022-10-13T00:25:21.679Z,5.53
2022-10-13T00:30:24.296Z,5.52
2022-10-13T00:35:26.064Z,5.67
2022-10-13T00:40:27.802Z,5.75
2022-10-13T00:45:29.737Z,5.73
2022-10-13T00:50:39.484Z,5.61
2022-10-13T00:55:43.231Z,5.51
2022-10-13T01:00:50.862Z,5.50
2022-10-13T01:05:56.863Z,5.66
2022-10-13T01:11:36.077Z,5.53
2022-10-13T01:16:43.878Z,5.40
2022-10-13T01:21:54.692Z,5.29
2022-10-13T01:27:10.389Z,5.24
2022-10-13T01:32:24.261Z,5.15
2022-10-13T01:37:36.938Z,5.10
2022-10-13T01:43:08.464Z,4.98
2022-10-13T01:48:11.072Z,5.14
2022-10-13T01:53:18.217Z,5.37
2022-10-13T01:58:30.091Z,5.34
2022-10-13T02:03:51.941Z,5.21
2022-10-13T02:09:05.831Z,5.18
2022-10-13T02:14:33.718Z,5.32
2022-10-13T02:19:38.637Z,5.54
2022-10-13T02:24:40.578Z,5.71
2022-10-13T02:29:54.094Z,5.93
2022-10-13T02:34:55.844Z,6.08
2022-10-13T02:39:57.598Z,6.16
2022-10-13T02:44:59.336Z,6.07
2022-10-13T02:50:01.109Z,5.96
2022-10-13T02:55:03.892Z,5.91
2022-10-13T03:00:07.293Z,5.86
2022-10-13T03:05:10.384Z,5.95
2022-10-13T03:10:12.145Z,6.01
2022-10-13T03:15:14.133Z,6.05
2022-10-13T03:20:16.453Z,5.97
2022-10-13T03:25:18.278Z,5.83
2022-10-13T03:30:20.013Z,5.76
2022-10-13T03:35:21.923Z,5.72
2022-10-13T03:40:24.671Z,5.57
2022-10-13T03:45:26.419Z,5.44
2022-10-13T03:50:28.199Z,5.37
2022-10-13T03:55:29.952Z,5.34
2022-10-13T04:00:31.669Z,5.30
2022-10-13T04:05:34.448Z,5.37
2022-10-13T04:10:36.240Z,5.28
2022-10-13T04:15:39.435Z,5.18
2022-10-13T04:20:41.203Z,5.09
2022-10-13T04:25:42.932Z,4.99
2022-10-13T04:30:49.257Z,4.95
2022-10-13T04:35:51.380Z,4.82
2022-10-13T04:40:53.085Z,4.75
2022-10-13T04:46:04.248Z,4.68
2022-10-13T04:51:09.051Z,4.58
2022-10-13T04:56:16.569Z,4.60
2022-10-13T05:01:22.451Z,4.62
2022-10-13T05:06:27.432Z,4.68
2022-10-13T05:11:33.125Z,4.53
2022-10-13T05:16:34.918Z,4.43
2022-10-13T05:21:36.688Z,4.34
2022-10-13T05:26:38.534Z,4.29
2022-10-13T05:31:40.304Z,4.24
2022-10-13T05:36:42.296Z,4.25
2022-10-13T05:41:44.230Z,4.23
2022-10-13T05:46:48.359Z,4.27
2022-10-13T05:51:55.548Z,4.35
2022-10-13T05:57:19.698Z,4.39
2022-10-13T06:02:24.955Z,4.44
2022-10-13T06:07:26.747Z,4.45
2022-10-13T06:12:28.488Z,4.56
2022-10-13T06:17:30.256Z,4.69
2022-10-13T06:22:33.441Z,4.86
2022-10-13T06:27:35.197Z,5.04
2022-10-13T06:32:36.941Z,5.17
2022-10-13T06:37:38.678Z,5.42
2022-10-13T06:42:49.813Z,6.04
2022-10-13T06:47:54.446Z,6.60
2022-10-13T06:52:56.915Z,6.95
2022-10-13T06:57:58.638Z,7.33
2022-10-13T07:03:00.440Z,7.66
2022-10-13T07:08:02.481Z,8.01
2022-10-13T07:13:04.433Z,8.44
2022-10-13T07:18:06.797Z,9.00
2022-10-13T07:23:08.945Z,9.40
2022-10-13T07:28:10.690Z,9.39
2022-10-13T07:33:12.818Z,9.35
2022-10-13T07:38:14.584Z,9.75
2022-10-13T07:43:17.613Z,10.33
2022-10-13T07:48:19.456Z,10.87
2022-10-13T07:53:21.257Z,11.44
2022-10-13T07:58:23.096Z,12.16
2022-10-13T08:03:25.110Z,12.44
2022-10-13T08:08:27.465Z,12.58
2022-10-13T08:13:29.280Z,12.95
2022-10-13T08:18:31.445Z,13.20
2022-10-13T08:23:33.261Z,13.29
2022-10-13T08:28:35.133Z,13.58
2022-10-13T08:33:37.020Z,14.17
2022-10-13T08:38:41.047Z,14.58
2022-10-13T08:44:24.714Z,14.78
2022-10-13T08:49:10.012Z,14.72
2022-10-13T08:54:16.834Z,14.85
2022-10-13T08:59:19.047Z,15.05
2022-10-13T09:04:40.890Z,15.31
2022-10-13T09:09:43.146Z,15.67
2022-10-13T09:14:59.475Z,15.68
2022-10-13T09:20:06.390Z,15.76
2022-10-13T09:25:08.687Z,15.76
2022-10-13T09:30:46.962Z,15.27
2022-10-13T09:35:56.211Z,15.15
2022-10-13T09:41:10.168Z,15.74
2022-10-13T09:46:23.054Z,16.24
2022-10-13T09:51:33.977Z,15.89
2022-10-13T09:56:53.514Z,15.59
2022-10-13T10:01:58.548Z,15.49
2022-10-13T10:07:02.311Z,15.76
2022-10-13T10:12:05.458Z,16.07
2022-10-13T10:17:32.748Z,16.49
2022-10-13T10:22:44.432Z,16.60
2022-10-13T10:28:03.627Z,16.72
2022-10-13T10:33:18.936Z,16.90
2022-10-13T10:38:33.122Z,16.93
2022-10-13T10:43:50.990Z,16.42
2022-10-13T10:48:57.579Z,16.51
2022-10-13T10:54:09.748Z,16.39
2022-10-13T10:59:11.595Z,16.54
2022-10-13T11:04:38.992Z,17.00
2022-10-13T11:09:43.899Z,16.88
2022-10-13T11:15:24.293Z,17.01
2022-10-13T11:20:26.152Z,17.31
2022-10-13T11:25:35.703Z,17.39
2022-10-13T11:30:47.589Z,16.86
2022-10-13T11:35:50.780Z,16.61
2022-10-13T11:41:17.170Z,16.21
2022-10-13T11:46:36.423Z,16.41
2022-10-13T11:51:46.907Z,16.51
2022-10-13T11:56:54.674Z,16.34
2022-10-13T12:02:14.524Z,16.45
2022-10-13T12:07:22.244Z,16.17
2022-10-13T12:12:25.003Z,15.97
2022-10-13T12:17:27.487Z,15.81
2022-10-13T12:22:30.228Z,15.81
2022-10-13T12:27:42.493Z,15.56
2022-10-13T12:32:50.392Z,15.56
2022-10-13T12:37:54.016Z,15.25
2022-10-13T12:42:56.229Z,15.48
2022-10-13T12:47:58.246Z,15.64
2022-10-13T12:53:03.079Z,16.13
2022-10-13T12:58:04.895Z,17.08
2022-10-13T13:03:07.118Z,16.96
2022-10-13T13:08:31.843Z,17.77
2022-10-13T13:13:34.018Z,17.96
2022-10-13T13:18:41.625Z,17.09
2022-10-13T13:23:51.038Z,16.40
2022-10-13T13:28:57.007Z,16.15
2022-10-13T13:33:58.824Z,16.21
2022-10-13T13:39:00.664Z,16.30
2022-10-13T13:44:02.591Z,16.08
2022-10-13T13:49:04.451Z,16.06
2022-10-13T13:54:06.458Z,15.99
2022-10-13T13:59:08.281Z,15.74
2022-10-13T14:04:10.225Z,15.56
2022-10-13T14:09:11.981Z,15.57
2022-10-13T14:14:13.922Z,15.55
2022-10-13T14:19:15.685Z,15.44
2022-10-13T14:24:17.498Z,15.40
2022-10-13T14:29:19.567Z,15.47
2022-10-13T14:34:21.720Z,15.33
2022-10-13T14:39:23.485Z,15.37
2022-10-13T14:44:25.258Z,15.26
2022-10-13T14:49:27.053Z,15.36
2022-10-13T14:54:28.835Z,15.46
2022-10-13T14:59:30.784Z,15.35
2022-10-13T15:04:32.592Z,15.17
2022-10-13T15:09:45.476Z,15.05
2022-10-13T15:14:55.167Z,14.89
2022-10-13T15:19:56.935Z,14.82
2022-10-13T15:24:58.801Z,14.78
2022-10-13T15:30:00.785Z,14.77
2022-10-13T15:35:02.531Z,14.80
2022-10-13T15:40:05.399Z,14.80
2022-10-13T15:45:10.387Z,14.73
2022-10-13T15:50:12.734Z,14.57
2022-10-13T15:55:14.616Z,14.37
2022-10-13T16:00:16.736Z,14.05
2022-10-13T16:05:19.774Z,13.75
2022-10-13T16:10:21.520Z,13.47
2022-10-13T16:15:23.309Z,13.25
2022-10-13T16:20:25.305Z,13.04
2022-10-13T16:25:27.284Z,12.79
2022-10-13T16:30:30.489Z,12.28
2022-10-13T16:35:32.352Z,11.79
2022-10-13T16:40:37.207Z,11.43
2022-10-13T16:45:58.685Z,11.11
2022-10-13T16:51:06.108Z,10.88
2022-10-13T16:56:08.697Z,10.79
2022-10-13T17:01:11.538Z,10.74
2022-10-13T17:06:14.651Z,10.86
2022-10-13T17:11:22.901Z,11.02
2022-10-13T17:16:25.080Z,11.45
2022-10-13T17:21:26.848Z,11.74
2022-10-13T17:26:28.649Z,12.01
2022-10-13T17:31:30.560Z,12.33
2022-10-13T17:36:34.157Z,12.45
2022-10-13T17:41:43.709Z,12.40
2022-10-13T17:46:45.445Z,12.39
2022-10-13T17:51:51.544Z,12.16
2022-10-13T17:56:55.294Z,11.94
2022-10-13T18:01:57.090Z,11.74
2022-10-13T18:06:58.919Z,11.61
2022-10-13T18:12:00.701Z,11.47
2022-10-13T18:17:02.459Z,11.42
2022-10-13T18:22:04.214Z,11.41
2022-10-13T18:27:06.069Z,11.40
2022-10-13T18:32:10.414Z,11.32
2022-10-13T18:37:12.159Z,11.29
2022-10-13T18:42:13.923Z,11.15
2022-10-13T18:47:15.652Z,10.98
2022-10-13T18:52:17.687Z,10.82
2022-10-13T18:57:19.736Z,10.80
2022-10-13T19:02:23.075Z,10.85
2022-10-13T19:07:24.872Z,10.57
2022-10-13T19:12:27.687Z,10.47
2022-10-13T19:17:29.484Z,10.55
2022-10-13T19:22:31.262Z,10.42
2022-10-13T19:27:33.540Z,10.48
2022-10-13T19:32:35.363Z,10.64
2022-10-13T19:37:39.451Z,10.64
2022-10-13T19:42:41.339Z,10.63
2022-10-13T19:47:43.090Z,10.72
2022-10-13T19:52:44.849Z,10.71
2022-10-13T19:57:46.652Z,10.77
2022-10-13T20:02:48.386Z,10.78
2022-10-13T20:07:50.125Z,10.81
2022-10-13T20:12:51.863Z,10.83
2022-10-13T20:17:53.629Z,10.83
2022-10-13T20:22:55.580Z,10.86
2022-10-13T20:27:57.390Z,10.85
2022-10-13T20:32:59.349Z,10.85
2022-10-13T20:38:01.109Z,10.90
2022-10-13T20:43:02.997Z,10.91
2022-10-13T20:48:07.869Z,10.96
2022-10-13T20:53:09.613Z,11.00
2022-10-13T20:58:11.360Z,11.03
2022-10-13T21:03:13.079Z,10.98
2022-10-13T21:08:15.965Z,10.92
2022-10-13T21:13:17.871Z,10.81
2022-10-13T21:18:19.644Z,10.82
2022-10-13T21:23:21.387Z,10.75
2022-10-13T21:28:23.262Z,10.73
2022-10-13T21:33:27.220Z,10.84
2022-10-13T21:38:29.118Z,10.57
2022-10-13T21:43:30.894Z,10.39
2022-10-13T21:48:32.673Z,10.25
2022-10-13T21:53:34.461Z,10.27
2022-10-13T21:58:36.217Z,10.27
2022-10-13T22:03:38.114Z,10.23
2022-10-13T22:08:41.320Z,10.19
2022-10-13T22:13:48.855Z,10.24
2022-10-13T22:18:55.877Z,10.26
2022-10-13T22:24:00.181Z,10.28
2022-10-13T22:29:03.957Z,10.29
2022-10-13T22:34:06.085Z,10.25
2022-10-13T22:39:07.935Z,10.23
2022-10-13T22:44:10.496Z,10.20
2022-10-13T22:49:13.351Z,10.05
2022-10-13T22:54:14.955Z,10.07
2022-10-13T22:59:16.526Z,9.85
2022-10-13T23:04:18.061Z,9.60
2022-10-13T23:09:19.621Z,9.39
2022-10-13T23:14:21.274Z,9.18
2022-10-13T23:19:22.907Z,8.96
2022-10-13T23:24:24.537Z,8.77
2022-10-13T23:29:27.290Z,8.58
2022-10-13T23:34:29.233Z,8.53
2022-10-13T23:39:31.279Z,8.54
2022-10-13T23:44:32.815Z,8.64
2022-10-13T23:49:34.341Z,8.58
2022-10-13T23:54:35.974Z,8.64
2022-10-13T23:59:37.602Z,8.77
